A- A+
   

最近的 特别机场 旧机场 SADM MoronSCCI Punta Arenas IntlORBB BamarniLFBT Tarbes-Lourdes-PyrénéesLFAT Le-Touquet-Paris-PlageVHHH Hong Kong Intl

飞行员的航空天气,使用METAR(气象机场报告)进行的飞行准备和TAF(终端机场预报:针对以下情况的短期天气预报)航空)。 以及其他资源,例如VAC(目视进近图)和NOTAM(通知飞行员)以进行预试飞行.

METAR, TAF, VAC, NOTAM Nasa Shuttle Landing Facility机场 (美国) / OACI KTTS

航天飞机着陆设施是位于美国佛罗里达州梅里特岛的私人机场。 它是约翰·肯尼迪航天中心的一部分,一直被NASA航天飞机用于着陆,直到该计划于2011年结束。它还用于飞机的起降。 NASA培训,例如穿梭载机和民用飞机。

这个机场拥有世界上最长的跑道之一.

这个机场的配置异常。 它是私人或危险机场的一部分.

Nasa Shuttle Landing Facility 它位于附近 Titusville, Merritt Island 在 9 km, Titusville 在 11 km, Manatee Hammock Park Mobile Home Park 在 15 km, Mims 在 16 km, Port Saint John 在 18 km, Sharpes 在 21 km, Cape Canaveral 在 25 km, Cocoa 在 26 km, City of Cape Canaveral 在 26 km, Cocoa West 在 29 km,

METAR Nasa Shuttle Landing Facility机场的 - KTTS

KTTS 102156Z AUTO 17009G19KT 10SM FEW060 25/20 A2980 RMK AO2 SLP095 T02490203 $

Nasa Shuttle Landing Facility机场METAR解码 (美国)

KTTS机场发行的METAR日期2021年04月10日至21:56 GMT. 这是一个自动生成的METAR, 警告:此METAR已过期, 已于 5 天 16 小时 30 分钟.

可见度为 16 km = 10 sm.

温度为25 °C = 77 °F 露点为20 °C = 68 °F 。 这相当于74%的相对湿度。.

QNH是1009 mb = 29.8 inHg

的风 17 km/h = 9 kt 阵风在 35 km/h = 19 kt, 风向为 170°.

云: 处少云 6000 ft = 1830 m.

备注 带有降水传感器的自动站 海平面压力 SLP=095 T02490203 $

TAF Nasa Shuttle Landing Facility机场的 - KTTS

没有TAF,但可以使用航空天气 Space Coast Regl机场的 (KTIX) 在 15 km

Nasa Shuttle Landing Facility机场的NOTAM

提供的NOTAM不能保证其时事性。 在将其用于飞行准备或在飞行期间使用之前,飞行员是唯一负责验证其有效性的人员。

国际民航组织没有提供通知

最近的机场 Nasa Shuttle Landing Facility

数据源